createdAt,value
2019-02-09T17:22:37.492Z,20.90
2019-02-09T17:25:08.869Z,20.10
2019-02-09T17:27:37.448Z,22.20
2019-02-09T17:30:11.925Z,21.07
2019-02-09T17:32:40.606Z,21.13
2019-02-09T17:35:11.067Z,20.77
2019-02-09T17:37:39.766Z,21.20
2019-02-09T17:40:11.562Z,20.43
2019-02-09T17:42:40.330Z,20.23
2019-02-09T17:45:20.687Z,21.53
2019-02-09T17:47:49.269Z,20.07
2019-02-09T17:50:18.053Z,19.43
2019-02-09T17:52:46.704Z,19.23
2019-02-09T17:55:18.616Z,19.87
2019-02-09T17:57:47.591Z,18.37
2019-02-09T18:00:25.599Z,17.83
2019-02-09T18:02:54.272Z,18.53
2019-02-09T18:05:22.859Z,18.60
2019-02-09T18:07:51.660Z,19.00
2019-02-09T18:10:20.313Z,18.67
2019-02-09T18:12:49.326Z,22.10
2019-02-09T18:15:19.097Z,18.83
2019-02-09T18:17:47.761Z,18.93
2019-02-09T18:20:17.161Z,19.87
2019-02-09T18:22:45.890Z,17.77
2019-02-09T18:25:22.281Z,19.20
2019-02-09T18:27:50.949Z,19.10
2019-02-09T18:30:31.584Z,18.70
2019-02-09T18:33:00.256Z,20.17
2019-02-09T18:35:28.914Z,20.43
2019-02-09T18:37:57.582Z,20.47
2019-02-09T18:40:27.252Z,20.60
2019-02-09T18:42:55.994Z,21.13
2019-02-09T18:45:26.658Z,20.60
2019-02-09T18:47:55.321Z,20.00
2019-02-09T18:50:25.687Z,20.00
2019-02-09T18:52:54.548Z,21.43
2019-02-09T18:55:24.841Z,19.37
2019-02-09T18:57:53.505Z,19.60
2019-02-09T19:00:24.941Z,20.07
2019-02-09T19:02:53.598Z,20.33
2019-02-09T19:05:22.352Z,21.23
2019-02-09T19:07:51.149Z,22.47
2019-02-09T19:10:27.901Z,21.93
2019-02-09T19:12:56.604Z,22.77
2019-02-09T19:15:26.711Z,22.97
2019-02-09T19:17:55.877Z,23.43
2019-02-09T19:20:30.356Z,22.00
2019-02-09T19:22:59.022Z,23.73
2019-02-09T19:25:27.679Z,23.97
2019-02-09T19:27:56.339Z,22.30
2019-02-09T19:30:25.907Z,22.23
2019-02-09T19:32:54.609Z,22.90
2019-02-09T19:35:23.282Z,22.37
2019-02-09T19:37:51.938Z,22.40
2019-02-09T19:40:25.559Z,21.70
2019-02-09T19:42:54.209Z,23.07
2019-02-09T19:45:25.333Z,24.07
2019-02-09T19:47:54.110Z,23.50
2019-02-09T19:50:22.766Z,23.33
2019-02-09T19:52:51.448Z,23.57
2019-02-09T19:55:27.697Z,22.10
2019-02-09T19:57:56.355Z,22.47
2019-02-09T20:00:31.138Z,22.37
2019-02-09T20:02:59.797Z,22.70
2019-02-09T20:05:28.463Z,21.80
2019-02-09T20:07:57.120Z,21.83
2019-02-09T20:10:36.634Z,23.20
2019-02-09T20:13:05.990Z,22.20
2019-02-09T20:15:34.658Z,20.40
2019-02-09T20:18:03.307Z,21.50
2019-02-09T20:20:31.973Z,21.07
2019-02-09T20:23:00.627Z,21.40
2019-02-09T20:25:29.281Z,19.67
2019-02-09T20:27:57.949Z,19.93
2019-02-09T20:30:31.258Z,20.67
2019-02-09T20:33:00.004Z,19.27
2019-02-09T20:35:28.674Z,20.33
2019-02-09T20:37:57.440Z,19.63
2019-02-09T20:40:28.760Z,20.37
2019-02-09T20:43:01.935Z,19.47
2019-02-09T20:45:28.057Z,19.23
2019-02-09T20:47:56.713Z,18.77
2019-02-09T20:50:25.375Z,19.50
2019-02-09T20:52:54.043Z,18.73
2019-02-09T20:55:22.830Z,17.30
2019-02-09T20:57:51.504Z,17.93
2019-02-09T21:00:31.000Z,17.37
2019-02-09T21:02:59.781Z,17.33
2019-02-09T21:05:35.603Z,17.67
2019-02-09T21:07:58.895Z,16.63
2019-02-09T21:10:33.496Z,18.00
2019-02-09T21:13:02.147Z,16.40
2019-02-09T21:15:31.217Z,16.73
2019-02-09T21:17:59.881Z,17.67
2019-02-09T21:20:28.537Z,16.33
2019-02-09T21:22:57.195Z,17.40
2019-02-09T21:25:33.677Z,16.37
2019-02-09T21:28:02.344Z,15.07
2019-02-09T21:30:31.000Z,15.50
2019-02-09T21:32:59.660Z,15.40
2019-02-09T21:35:28.578Z,15.47
2019-02-09T21:37:58.158Z,16.80
2019-02-09T21:40:33.195Z,15.63
2019-02-09T21:43:01.783Z,15.50
2019-02-09T21:45:30.461Z,16.17
2019-02-09T21:47:59.136Z,15.37
2019-02-09T21:50:33.436Z,16.03
2019-02-09T21:53:02.087Z,15.80
2019-02-09T21:55:30.767Z,15.77
2019-02-09T21:57:59.403Z,15.10
2019-02-09T22:00:30.166Z,15.93
2019-02-09T22:02:58.851Z,15.60
2019-02-09T22:05:27.502Z,15.50
2019-02-09T22:07:56.155Z,16.50
2019-02-09T22:10:30.279Z,15.73
2019-02-09T22:12:56.912Z,17.43
2019-02-09T22:15:38.453Z,17.37
2019-02-09T22:18:01.290Z,17.37
2019-02-09T22:20:29.923Z,17.27
2019-02-09T22:22:58.504Z,19.13
2019-02-09T22:25:27.789Z,18.97
2019-02-09T22:27:56.487Z,17.87
2019-02-09T22:30:26.659Z,18.53
2019-02-09T22:32:55.448Z,17.80
2019-02-09T22:35:24.025Z,18.53
2019-02-09T22:37:52.609Z,19.53
2019-02-09T22:40:26.497Z,19.13
2019-02-09T22:42:55.148Z,19.30
2019-02-09T22:45:24.615Z,19.83
2019-02-09T22:47:53.462Z,19.30
2019-02-09T22:50:27.775Z,20.13
2019-02-09T22:52:56.535Z,19.07
2019-02-09T22:55:25.298Z,20.27
2019-02-09T22:57:53.950Z,19.40
2019-02-09T23:00:48.141Z,19.70
2019-02-09T23:03:17.303Z,19.57
2019-02-09T23:06:08.457Z,18.13
2019-02-09T23:08:37.101Z,18.17
2019-02-09T23:11:08.756Z,20.10
2019-02-09T23:13:37.422Z,19.73
2019-02-09T23:16:06.082Z,19.03
2019-02-09T23:18:34.729Z,20.67
2019-02-09T23:21:03.315Z,17.57
2019-02-09T23:23:32.079Z,19.73
2019-02-09T23:26:00.728Z,20.07
2019-02-09T23:28:29.336Z,19.07
2019-02-09T23:31:00.299Z,18.77
2019-02-09T23:33:28.973Z,19.90
2019-02-09T23:35:57.637Z,20.17
2019-02-09T23:38:26.309Z,19.37
2019-02-09T23:40:55.069Z,19.93
2019-02-09T23:43:23.746Z,19.73
2019-02-09T23:45:52.399Z,20.87
2019-02-09T23:48:21.075Z,20.10
2019-02-09T23:50:49.652Z,21.07
2019-02-09T23:53:18.305Z,21.47
2019-02-09T23:55:46.883Z,20.60
2019-02-09T23:58:15.459Z,21.17
